sensor_id;sensor_type;location;lat;lon;timestamp;pressure;altitude;pressure_sealevel;temperature;humidity
44481;BME280;30184;42.018;23.670;2022-12-05T00:00:15;92265.75;;;6.36;80.81
44481;BME280;30184;42.018;23.670;2022-12-05T00:02:46;92270.34;;;6.36;80.56
44481;BME280;30184;42.018;23.670;2022-12-05T00:05:16;92263.03;;;6.36;80.65
44481;BME280;30184;42.018;23.670;2022-12-05T00:07:45;92260.34;;;6.36;80.45
44481;BME280;30184;42.018;23.670;2022-12-05T00:10:15;92269.97;;;6.30;80.21
44481;BME280;30184;42.018;23.670;2022-12-05T00:12:44;92267.66;;;6.25;80.50
44481;BME280;30184;42.018;23.670;2022-12-05T00:15:13;92253.78;;;6.23;80.80
44481;BME280;30184;42.018;23.670;2022-12-05T00:17:42;92257.63;;;6.22;80.60
44481;BME280;30184;42.018;23.670;2022-12-05T00:20:13;92252.63;;;6.24;80.91
44481;BME280;30184;42.018;23.670;2022-12-05T00:22:42;92254.94;;;6.26;81.01
44481;BME280;30184;42.018;23.670;2022-12-05T00:25:11;92256.50;;;6.27;80.70
44481;BME280;30184;42.018;23.670;2022-12-05T00:27:40;92242.63;;;6.18;80.64
44481;BME280;30184;42.018;23.670;2022-12-05T00:30:10;92253.41;;;6.18;80.82
44481;BME280;30184;42.018;23.670;2022-12-05T00:32:39;92263.03;;;6.22;80.88
44481;BME280;30184;42.018;23.670;2022-12-05T00:35:08;92263.81;;;6.23;81.01
44481;BME280;30184;42.018;23.670;2022-12-05T00:37:38;92256.88;;;6.22;81.20
44481;BME280;30184;42.018;23.670;2022-12-05T00:40:08;92263.03;;;6.22;81.26
44481;BME280;30184;42.018;23.670;2022-12-05T00:42:37;92219.91;;;5.94;81.15
44481;BME280;30184;42.018;23.670;2022-12-05T00:45:07;92274.59;;;6.26;81.35
44481;BME280;30184;42.018;23.670;2022-12-05T00:47:37;92270.75;;;6.27;81.48
44481;BME280;30184;42.018;23.670;2022-12-05T00:50:07;92265.34;;;6.31;81.64
44481;BME280;30184;42.018;23.670;2022-12-05T00:52:36;92258.03;;;6.31;81.70
44481;BME280;30184;42.018;23.670;2022-12-05T00:55:07;92257.66;;;6.33;81.46
44481;BME280;30184;42.018;23.670;2022-12-05T00:57:37;92217.97;;;6.12;81.41
44481;BME280;30184;42.018;23.670;2022-12-05T01:00:07;92243.41;;;6.32;81.77
44481;BME280;30184;42.018;23.670;2022-12-05T01:02:36;92246.88;;;6.36;82.20
44481;BME280;30184;42.018;23.670;2022-12-05T01:05:06;92237.63;;;6.38;82.33
44481;BME280;30184;42.018;23.670;2022-12-05T01:07:36;92225.69;;;6.24;82.51
44481;BME280;30184;42.018;23.670;2022-12-05T01:10:08;92254.94;;;6.40;82.75
44481;BME280;30184;42.018;23.670;2022-12-05T01:12:37;92253.41;;;6.43;82.62
44481;BME280;30184;42.018;23.670;2022-12-05T01:15:07;92244.94;;;6.44;82.54
44481;BME280;30184;42.018;23.670;2022-12-05T01:17:37;92231.06;;;6.46;82.46
44481;BME280;30184;42.018;23.670;2022-12-05T01:20:07;92237.63;;;6.45;81.92
44481;BME280;30184;42.018;23.670;2022-12-05T01:22:36;92233.75;;;6.46;81.88
44481;BME280;30184;42.018;23.670;2022-12-05T01:25:08;92233.75;;;6.46;81.88
44481;BME280;30184;42.018;23.670;2022-12-05T01:27:37;92236.47;;;6.46;81.56
44481;BME280;30184;42.018;23.670;2022-12-05T01:30:07;92244.94;;;6.48;81.35
44481;BME280;30184;42.018;23.670;2022-12-05T01:32:36;92208.00;;;6.20;81.07
44481;BME280;30184;42.018;23.670;2022-12-05T01:35:06;92244.56;;;6.46;81.19
44481;BME280;30184;42.018;23.670;2022-12-05T01:37:35;92246.88;;;6.47;81.51
44481;BME280;30184;42.018;23.670;2022-12-05T01:40:07;92246.88;;;6.47;81.59
44481;BME280;30184;42.018;23.670;2022-12-05T01:42:37;92230.31;;;6.34;81.71
44481;BME280;30184;42.018;23.670;2022-12-05T01:45:13;92233.38;;;6.44;81.77
44481;BME280;30184;42.018;23.670;2022-12-05T01:47:44;92233.38;;;6.44;81.72
44481;BME280;30184;42.018;23.670;2022-12-05T01:50:13;92235.69;;;6.45;81.72
44481;BME280;30184;42.018;23.670;2022-12-05T01:52:42;92228.75;;;6.44;81.96
44481;BME280;30184;42.018;23.670;2022-12-05T01:55:14;92232.63;;;6.47;82.01
44481;BME280;30184;42.018;23.670;2022-12-05T01:57:46;92232.63;;;6.47;81.96
44481;BME280;30184;42.018;23.670;2022-12-05T02:00:18;92230.31;;;6.45;82.14
44481;BME280;30184;42.018;23.670;2022-12-05T02:02:50;92221.81;;;6.32;82.33
44481;BME280;30184;42.018;23.670;2022-12-05T02:05:22;92229.91;;;6.43;82.41
44481;BME280;30184;42.018;23.670;2022-12-05T02:07:53;92219.91;;;6.44;82.83
44481;BME280;30184;42.018;23.670;2022-12-05T02:10:27;92225.28;;;6.44;83.09
44481;BME280;30184;42.018;23.670;2022-12-05T02:13:04;92223.75;;;6.43;82.75
44481;BME280;30184;42.018;23.670;2022-12-05T02:15:42;92219.50;;;6.42;82.69
44481;BME280;30184;42.018;23.670;2022-12-05T02:18:31;92224.53;;;6.43;82.65
44481;BME280;30184;42.018;23.670;2022-12-05T02:21:18;92269.56;;;6.43;82.87
44481;BME280;30184;42.018;23.670;2022-12-05T02:24:14;92222.59;;;6.44;82.75
44481;BME280;30184;42.018;23.670;2022-12-05T02:27:16;92227.59;;;6.42;83.38
44481;BME280;30184;42.018;23.670;2022-12-05T02:30:09;92233.38;;;6.44;83.20
44481;BME280;30184;42.018;23.670;2022-12-05T02:32:55;92230.69;;;6.44;83.50
44481;BME280;30184;42.018;23.670;2022-12-05T02:35:36;92241.06;;;6.42;83.67
44481;BME280;30184;42.018;23.670;2022-12-05T02:38:16;92236.06;;;6.40;84.43
44481;BME280;30184;42.018;23.670;2022-12-05T02:40:55;92213.75;;;6.29;84.32
44481;BME280;30184;42.018;23.670;2022-12-05T02:43:31;92234.91;;;6.45;84.51
44481;BME280;30184;42.018;23.670;2022-12-05T02:46:07;92233.75;;;6.46;84.75
44481;BME280;30184;42.018;23.670;2022-12-05T02:48:38;92232.22;;;6.45;84.80
44481;BME280;30184;42.018;23.670;2022-12-05T02:51:10;92219.50;;;6.42;85.20
44481;BME280;30184;42.018;23.670;2022-12-05T02:53:42;92228.75;;;6.48;85.63
44481;BME280;30184;42.018;23.670;2022-12-05T02:56:12;92223.38;;;6.48;85.89
44481;BME280;30184;42.018;23.670;2022-12-05T02:58:47;92235.69;;;6.45;86.22
44481;BME280;30184;42.018;23.670;2022-12-05T03:01:22;91963.75;;;4.61;86.12
44481;BME280;30184;42.018;23.670;2022-12-05T03:03:52;92222.22;;;6.34;86.45
44481;BME280;30184;42.018;23.670;2022-12-05T03:06:25;92243.78;;;6.45;86.38
44481;BME280;30184;42.018;23.670;2022-12-05T03:08:59;92232.63;;;6.47;86.45
44481;BME280;30184;42.018;23.670;2022-12-05T03:11:33;92236.47;;;6.46;86.30
44481;BME280;30184;42.018;23.670;2022-12-05T03:14:05;92228.38;;;6.46;86.14
44481;BME280;30184;42.018;23.670;2022-12-05T03:16:43;92229.91;;;6.47;86.11
44481;BME280;30184;42.018;23.670;2022-12-05T03:19:19;92221.84;;;6.36;85.38
44481;BME280;30184;42.018;23.670;2022-12-05T03:21:52;92227.97;;;6.44;85.29
44481;BME280;30184;42.018;23.670;2022-12-05T03:24:23;92224.13;;;6.45;85.55
44481;BME280;30184;42.018;23.670;2022-12-05T03:27:00;92135.25;;;5.88;85.30
44481;BME280;30184;42.018;23.670;2022-12-05T03:29:38;92222.22;;;6.42;84.64
44481;BME280;30184;42.018;23.670;2022-12-05T03:32:19;92216.44;;;6.40;84.62
44481;BME280;30184;42.018;23.670;2022-12-05T03:35:00;92212.59;;;6.37;83.89
44481;BME280;30184;42.018;23.670;2022-12-05T03:37:38;92207.22;;;6.37;83.80
44481;BME280;30184;42.018;23.670;2022-12-05T03:40:17;92207.97;;;6.34;83.93
44481;BME280;30184;42.018;23.670;2022-12-05T03:42:54;92210.28;;;6.35;84.28
44481;BME280;30184;42.018;23.670;2022-12-05T03:45:30;92212.59;;;6.37;84.88
44481;BME280;30184;42.018;23.670;2022-12-05T03:48:13;92196.03;;;6.24;85.14
44481;BME280;30184;42.018;23.670;2022-12-05T03:50:46;92197.97;;;6.34;84.87
44481;BME280;30184;42.018;23.670;2022-12-05T03:53:18;92211.81;;;6.36;84.24
44481;BME280;30184;42.018;23.670;2022-12-05T03:55:54;92211.81;;;6.33;83.44
44481;BME280;30184;42.018;23.670;2022-12-05T03:58:28;92201.03;;;6.22;83.50
44481;BME280;30184;42.018;23.670;2022-12-05T04:01:00;92198.75;;;6.24;83.57
44481;BME280;30184;42.018;23.670;2022-12-05T04:03:36;92225.31;;;6.36;83.20
44481;BME280;30184;42.018;23.670;2022-12-05T04:06:15;92208.78;;;6.20;82.89
44481;BME280;30184;42.018;23.670;2022-12-05T04:08:49;92213.75;;;6.32;83.03
44481;BME280;30184;42.018;23.670;2022-12-05T04:11:24;92231.84;;;6.35;82.73
44481;BME280;30184;42.018;23.670;2022-12-05T04:13:58;92222.22;;;6.34;82.68
44481;BME280;30184;42.018;23.670;2022-12-05T04:16:31;92213.38;;;6.27;82.59
44481;BME280;30184;42.018;23.670;2022-12-05T04:19:23;92224.53;;;6.32;82.51
44481;BME280;30184;42.018;23.670;2022-12-05T04:21:55;92227.22;;;6.32;82.74
44481;BME280;30184;42.018;23.670;2022-12-05T04:24:25;92221.44;;;6.30;82.93
44481;BME280;30184;42.018;23.670;2022-12-05T04:27:21;92223.41;;;6.19;82.90
44481;BME280;30184;42.018;23.670;2022-12-05T04:29:58;92223.41;;;6.30;82.44
44481;BME280;30184;42.018;23.670;2022-12-05T04:32:36;92223.41;;;6.30;82.57
44481;BME280;30184;42.018;23.670;2022-12-05T04:35:11;92200.31;;;6.11;82.57
44481;BME280;30184;42.018;23.670;2022-12-05T04:37:44;92221.84;;;6.29;82.47
44481;BME280;30184;42.018;23.670;2022-12-05T04:40:18;92215.69;;;6.25;82.38
44481;BME280;30184;42.018;23.670;2022-12-05T04:42:50;92219.91;;;6.22;82.30
44481;BME280;30184;42.018;23.670;2022-12-05T04:45:23;92203.75;;;6.08;82.36
44481;BME280;30184;42.018;23.670;2022-12-05T04:47:56;92230.69;;;6.22;82.61
44481;BME280;30184;42.018;23.670;2022-12-05T04:50:31;92206.81;;;5.96;82.73
44481;BME280;30184;42.018;23.670;2022-12-05T04:53:02;92234.56;;;6.11;83.07
44481;BME280;30184;42.018;23.670;2022-12-05T04:55:34;92230.31;;;5.92;83.44
44481;BME280;30184;42.018;23.670;2022-12-05T04:58:07;92241.09;;;5.99;83.76
44481;BME280;30184;42.018;23.670;2022-12-05T05:00:46;92250.31;;;5.98;83.66
44481;BME280;30184;42.018;23.670;2022-12-05T05:03:20;92254.19;;;6.01;83.92
44481;BME280;30184;42.018;23.670;2022-12-05T05:05:55;92255.72;;;6.02;83.65
44481;BME280;30184;42.018;23.670;2022-12-05T05:08:26;92253.03;;;6.02;83.45
44481;BME280;30184;42.018;23.670;2022-12-05T05:11:10;92237.63;;;5.91;83.17
44481;BME280;30184;42.018;23.670;2022-12-05T05:13:41;92240.69;;;5.90;83.10
44481;BME280;30184;42.018;23.670;2022-12-05T05:16:13;92258.81;;;6.00;82.92
44481;BME280;30184;42.018;23.670;2022-12-05T05:18:45;92254.56;;;5.99;83.19
44481;BME280;30184;42.018;23.670;2022-12-05T05:21:18;92267.19;;;5.84;82.95
44481;BME280;30184;42.018;23.670;2022-12-05T05:23:48;92251.47;;;5.90;82.71
44481;BME280;30184;42.018;23.670;2022-12-05T05:26:17;92256.81;;;5.83;83.20
44481;BME280;30184;42.018;23.670;2022-12-05T05:28:47;92248.72;;;5.79;83.49
44481;BME280;30184;42.018;23.670;2022-12-05T05:31:17;92250.25;;;5.77;83.71
44481;BME280;30184;42.018;23.670;2022-12-05T05:33:47;92224.44;;;5.58;83.87
44481;BME280;30184;42.018;23.670;2022-12-05T05:36:19;92266.78;;;5.75;83.96
44481;BME280;30184;42.018;23.670;2022-12-05T05:38:50;92273.72;;;5.73;83.99
44481;BME280;30184;42.018;23.670;2022-12-05T05:41:22;92275.28;;;5.74;84.00
44481;BME280;30184;42.018;23.670;2022-12-05T05:43:52;92289.50;;;5.78;84.35
44481;BME280;30184;42.018;23.670;2022-12-05T05:46:23;92283.38;;;5.81;84.09
44481;BME280;30184;42.018;23.670;2022-12-05T05:48:52;92291.06;;;5.82;84.60
44481;BME280;30184;42.018;23.670;2022-12-05T05:51:23;92288.75;;;5.81;84.39
44481;BME280;30184;42.018;23.670;2022-12-05T05:53:56;92291.44;;;5.84;84.19
44481;BME280;30184;42.018;23.670;2022-12-05T05:56:27;92301.84;;;5.86;83.96
44481;BME280;30184;42.018;23.670;2022-12-05T05:58:57;92306.84;;;5.84;83.84
44481;BME280;30184;42.018;23.670;2022-12-05T06:01:27;92293.03;;;5.92;83.78
44481;BME280;30184;42.018;23.670;2022-12-05T06:03:57;92281.81;;;5.87;83.81
44481;BME280;30184;42.018;23.670;2022-12-05T06:06:29;92220.97;;;5.47;83.37
44481;BME280;30184;42.018;23.670;2022-12-05T06:08:58;92298.81;;;5.98;83.49
44481;BME280;30184;42.018;23.670;2022-12-05T06:11:27;92299.22;;;5.93;83.36
44481;BME280;30184;42.018;23.670;2022-12-05T06:13:58;92301.13;;;6.03;83.08
44481;BME280;30184;42.018;23.670;2022-12-05T06:16:29;92301.91;;;6.07;83.18
44481;BME280;30184;42.018;23.670;2022-12-05T06:18:59;92306.13;;;6.12;83.02
44481;BME280;30184;42.018;23.670;2022-12-05T06:21:29;92308.06;;;6.15;83.04
44481;BME280;30184;42.018;23.670;2022-12-05T06:23:58;92305.78;;;6.20;82.61
44481;BME280;30184;42.018;23.670;2022-12-05T06:26:28;92302.31;;;6.23;82.29
44481;BME280;30184;42.018;23.670;2022-12-05T06:28:57;92295.00;;;6.20;82.35
44481;BME280;30184;42.018;23.670;2022-12-05T06:31:26;92293.06;;;6.24;82.36
44481;BME280;30184;42.018;23.670;2022-12-05T06:33:59;92311.94;;;6.35;81.92
44481;BME280;30184;42.018;23.670;2022-12-05T06:36:30;92309.63;;;6.41;81.63
44481;BME280;30184;42.018;23.670;2022-12-05T06:38:59;92316.94;;;6.44;80.94
44481;BME280;30184;42.018;23.670;2022-12-05T06:41:29;92306.94;;;6.44;80.93
44481;BME280;30184;42.018;23.670;2022-12-05T06:43:58;92272.66;;;6.20;80.68
44481;BME280;30184;42.018;23.670;2022-12-05T06:46:29;92301.94;;;6.50;80.94
44481;BME280;30184;42.018;23.670;2022-12-05T06:48:58;92301.16;;;6.53;80.86
44481;BME280;30184;42.018;23.670;2022-12-05T06:51:27;92283.47;;;6.48;80.44
44481;BME280;30184;42.018;23.670;2022-12-05T06:53:58;92291.53;;;6.52;80.27
44481;BME280;30184;42.018;23.670;2022-12-05T06:56:27;92288.84;;;6.52;79.68
44481;BME280;30184;42.018;23.670;2022-12-05T06:58:56;92288.84;;;6.52;79.84
44481;BME280;30184;42.018;23.670;2022-12-05T07:01:25;92286.53;;;6.50;79.45
44481;BME280;30184;42.018;23.670;2022-12-05T07:04:09;92284.22;;;6.38;79.19
44481;BME280;30184;42.018;23.670;2022-12-05T07:06:39;92284.59;;;6.40;79.41
44481;BME280;30184;42.018;23.670;2022-12-05T07:09:12;92295.38;;;6.40;79.16
44481;BME280;30184;42.018;23.670;2022-12-05T07:11:41;92300.75;;;6.40;79.29
44481;BME280;30184;42.018;23.670;2022-12-05T07:14:10;92283.44;;;6.16;79.01
44481;BME280;30184;42.018;23.670;2022-12-05T07:16:45;92296.91;;;6.41;79.06
44481;BME280;30184;42.018;23.670;2022-12-05T07:19:15;92307.72;;;6.45;79.31
44481;BME280;30184;42.018;23.670;2022-12-05T07:21:44;92300.78;;;6.44;79.18
44481;BME280;30184;42.018;23.670;2022-12-05T07:24:14;92307.72;;;6.48;79.09
44481;BME280;30184;42.018;23.670;2022-12-05T07:26:43;92313.09;;;6.52;79.08
44481;BME280;30184;42.018;23.670;2022-12-05T07:29:12;92311.19;;;6.56;79.09
44481;BME280;30184;42.018;23.670;2022-12-05T07:31:42;92319.66;;;6.61;79.07
44481;BME280;30184;42.018;23.670;2022-12-05T07:34:11;92315.03;;;6.65;78.87
44481;BME280;30184;42.018;23.670;2022-12-05T07:36:41;92306.53;;;6.70;78.45
44481;BME280;30184;42.018;23.670;2022-12-05T07:39:10;92313.50;;;6.75;78.48
44481;BME280;30184;42.018;23.670;2022-12-05T07:41:41;92281.91;;;6.58;78.32
44481;BME280;30184;42.018;23.670;2022-12-05T07:44:15;92317.72;;;6.83;78.07
44481;BME280;30184;42.018;23.670;2022-12-05T07:46:44;92308.81;;;6.86;77.73
44481;BME280;30184;42.018;23.670;2022-12-05T07:49:14;92309.59;;;6.87;77.68
44481;BME280;30184;42.018;23.670;2022-12-05T07:51:43;92316.53;;;6.91;77.75
44481;BME280;30184;42.018;23.670;2022-12-05T07:54:12;92302.66;;;6.96;77.95
44481;BME280;30184;42.018;23.670;2022-12-05T07:56:43;92313.44;;;7.03;77.89
44481;BME280;30184;42.018;23.670;2022-12-05T07:59:14;92309.56;;;7.11;77.61
44481;BME280;30184;42.018;23.670;2022-12-05T08:01:43;92098.31;;;5.60;77.04
44481;BME280;30184;42.018;23.670;2022-12-05T08:04:12;92310.69;;;7.25;77.10
44481;BME280;30184;42.018;23.670;2022-12-05T08:06:42;92311.44;;;7.29;76.67
44481;BME280;30184;42.018;23.670;2022-12-05T08:09:11;92308.75;;;7.29;76.08
44481;BME280;30184;42.018;23.670;2022-12-05T08:11:42;92311.41;;;7.36;75.86
44481;BME280;30184;42.018;23.670;2022-12-05T08:14:14;92296.78;;;7.30;75.95
44481;BME280;30184;42.018;23.670;2022-12-05T08:16:43;92307.94;;;7.35;75.43
44481;BME280;30184;42.018;23.670;2022-12-05T08:19:13;92319.06;;;7.52;75.29
44481;BME280;30184;42.018;23.670;2022-12-05T08:21:43;92333.72;;;7.58;75.04
44481;BME280;30184;42.018;23.670;2022-12-05T08:24:13;92321.75;;;7.62;75.05
44481;BME280;30184;42.018;23.670;2022-12-05T08:26:43;92322.94;;;7.58;74.19
44481;BME280;30184;42.018;23.670;2022-12-05T08:29:14;92322.91;;;7.68;73.91
44481;BME280;30184;42.018;23.670;2022-12-05T08:31:45;92320.94;;;7.76;74.51
44481;BME280;30184;42.018;23.670;2022-12-05T08:34:17;92310.06;;;7.83;74.47
44481;BME280;30184;42.018;23.670;2022-12-05T08:36:47;92308.09;;;7.91;73.94
44481;BME280;30184;42.018;23.670;2022-12-05T08:39:17;92307.28;;;7.97;73.28
44481;BME280;30184;42.018;23.670;2022-12-05T08:41:48;92314.22;;;8.05;72.41
44481;BME280;30184;42.018;23.670;2022-12-05T08:44:18;92308.78;;;8.09;72.04
44481;BME280;30184;42.018;23.670;2022-12-05T08:46:48;92311.44;;;8.16;71.70
44481;BME280;30184;42.018;23.670;2022-12-05T08:49:18;92300.59;;;8.19;71.09
44481;BME280;30184;42.018;23.670;2022-12-05T08:51:47;92308.31;;;8.24;72.00
44481;BME280;30184;42.018;23.670;2022-12-05T08:54:16;92289.41;;;8.21;71.67
44481;BME280;30184;42.018;23.670;2022-12-05T08:56:45;92312.50;;;8.36;70.89
44481;BME280;30184;42.018;23.670;2022-12-05T08:59:19;92315.91;;;8.44;71.40
44481;BME280;30184;42.018;23.670;2022-12-05T09:01:49;92307.38;;;8.49;70.92
44481;BME280;30184;42.018;23.670;2022-12-05T09:04:18;92296.97;;;8.44;71.01
44481;BME280;30184;42.018;23.670;2022-12-05T09:06:47;92238.44;;;8.16;69.94
44481;BME280;30184;42.018;23.670;2022-12-05T09:09:18;92301.84;;;8.63;69.52
44481;BME280;30184;42.018;23.670;2022-12-05T09:11:47;92303.00;;;8.66;69.00
44481;BME280;30184;42.018;23.670;2022-12-05T09:14:18;92302.59;;;8.71;68.82
44481;BME280;30184;42.018;23.670;2022-12-05T09:16:47;92299.44;;;8.76;68.31
44481;BME280;30184;42.018;23.670;2022-12-05T09:19:18;92320.78;;;8.67;68.23
44481;BME280;30184;42.018;23.670;2022-12-05T09:21:50;92290.16;;;8.77;68.72
44481;BME280;30184;42.018;23.670;2022-12-05T09:24:19;92280.88;;;8.78;68.17
44481;BME280;30184;42.018;23.670;2022-12-05T09:26:48;92277.41;;;8.77;68.27
44481;BME280;30184;42.018;23.670;2022-12-05T09:29:19;92284.28;;;8.82;68.63
44481;BME280;30184;42.018;23.670;2022-12-05T09:31:48;92285.47;;;8.81;68.59
44481;BME280;30184;42.018;23.670;2022-12-05T09:34:18;92268.94;;;8.72;68.61
44481;BME280;30184;42.018;23.670;2022-12-05T09:36:48;92270.44;;;8.76;68.98
44481;BME280;30184;42.018;23.670;2022-12-05T09:39:22;92276.22;;;8.78;68.81
44481;BME280;30184;42.018;23.670;2022-12-05T09:42:29;92269.69;;;8.76;68.54
44481;BME280;30184;42.018;23.670;2022-12-05T09:45:11;92270.84;;;8.71;68.87
44481;BME280;30184;42.018;23.670;2022-12-05T09:47:48;92263.50;;;8.72;69.05
44481;BME280;30184;42.018;23.670;2022-12-05T09:50:21;92259.25;;;8.74;69.34
44481;BME280;30184;42.018;23.670;2022-12-05T09:53:04;92249.94;;;8.79;69.11
44481;BME280;30184;42.018;23.670;2022-12-05T09:55:43;92238.25;;;8.85;69.00
44481;BME280;30184;42.018;23.670;2022-12-05T09:58:27;92214.00;;;8.75;68.35
44481;BME280;30184;42.018;23.670;2022-12-05T10:01:11;92237.00;;;8.97;68.24
44481;BME280;30184;42.018;23.670;2022-12-05T10:03:52;92241.56;;;9.04;67.74
44481;BME280;30184;42.018;23.670;2022-12-05T10:06:31;92234.53;;;9.10;68.56
44481;BME280;30184;42.018;23.670;2022-12-05T10:09:13;92230.25;;;9.12;67.93
44481;BME280;30184;42.018;23.670;2022-12-05T10:11:56;92223.91;;;9.26;66.40
44481;BME280;30184;42.018;23.670;2022-12-05T10:14:35;92180.84;;;9.05;66.70
44481;BME280;30184;42.018;23.670;2022-12-05T10:17:15;92220.78;;;9.27;66.54
44481;BME280;30184;42.018;23.670;2022-12-05T10:19:44;92228.03;;;9.38;66.53
44481;BME280;30184;42.018;23.670;2022-12-05T10:22:18;92232.66;;;9.37;65.86
44481;BME280;30184;42.018;23.670;2022-12-05T10:24:53;92230.38;;;9.35;66.17
44481;BME280;30184;42.018;23.670;2022-12-05T10:27:29;92218.41;;;9.33;67.82
44481;BME280;30184;42.018;23.670;2022-12-05T10:30:04;92209.16;;;9.30;68.55
44481;BME280;30184;42.018;23.670;2022-12-05T10:32:41;92198.78;;;9.25;68.74
44481;BME280;30184;42.018;23.670;2022-12-05T10:35:16;92208.72;;;9.35;68.39
44481;BME280;30184;42.018;23.670;2022-12-05T10:37:48;92085.13;;;8.54;67.80
44481;BME280;30184;42.018;23.670;2022-12-05T10:40:18;92204.47;;;9.34;67.53
44481;BME280;30184;42.018;23.670;2022-12-05T10:42:48;92212.22;;;9.32;68.32
44481;BME280;30184;42.018;23.670;2022-12-05T10:45:20;92207.59;;;9.33;68.29
44481;BME280;30184;42.018;23.670;2022-12-05T10:47:55;92207.59;;;9.33;70.21
44481;BME280;30184;42.018;23.670;2022-12-05T10:50:27;92205.63;;;9.33;69.80
44481;BME280;30184;42.018;23.670;2022-12-05T10:52:59;92180.31;;;9.17;68.73
44481;BME280;30184;42.018;23.670;2022-12-05T10:55:31;92204.50;;;9.31;68.42
44481;BME280;30184;42.018;23.670;2022-12-05T10:58:12;92196.78;;;9.29;68.93
44481;BME280;30184;42.018;23.670;2022-12-05T11:00:46;92196.78;;;9.29;68.95
44481;BME280;30184;42.018;23.670;2022-12-05T11:03:25;92191.38;;;9.29;69.33
44481;BME280;30184;42.018;23.670;2022-12-05T11:05:56;92198.28;;;9.34;70.14
44481;BME280;30184;42.018;23.670;2022-12-05T11:08:27;92196.34;;;9.34;70.49
44481;BME280;30184;42.018;23.670;2022-12-05T11:11:19;92185.16;;;9.32;70.63
44481;BME280;30184;42.018;23.670;2022-12-05T11:13:54;92185.16;;;9.32;70.90
44481;BME280;30184;42.018;23.670;2022-12-05T11:16:25;92141.75;;;9.06;71.07
44481;BME280;30184;42.018;23.670;2022-12-05T11:19:17;92195.63;;;9.27;70.95
44481;BME280;30184;42.018;23.670;2022-12-05T11:21:48;92189.91;;;9.21;71.47
44481;BME280;30184;42.018;23.670;2022-12-05T11:24:20;92182.16;;;9.23;72.10
44481;BME280;30184;42.018;23.670;2022-12-05T11:26:50;92169.16;;;9.11;73.11
44481;BME280;30184;42.018;23.670;2022-12-05T11:29:28;92126.03;;;8.93;71.99
44481;BME280;30184;42.018;23.670;2022-12-05T11:31:58;92172.91;;;9.21;72.10
44481;BME280;30184;42.018;23.670;2022-12-05T11:34:34;92172.50;;;9.22;72.71
44481;BME280;30184;42.018;23.670;2022-12-05T11:37:10;92169.78;;;9.22;72.87
44481;BME280;30184;42.018;23.670;2022-12-05T11:39:41;92171.25;;;9.27;73.13
44481;BME280;30184;42.018;23.670;2022-12-05T11:42:28;92165.78;;;9.34;72.65
44481;BME280;30184;42.018;23.670;2022-12-05T11:45:24;92150.22;;;9.38;73.14
44481;BME280;30184;42.018;23.670;2022-12-05T11:48:13;92152.03;;;9.48;73.33
44481;BME280;30184;42.018;23.670;2022-12-05T11:51:03;92141.75;;;9.36;72.69
44481;BME280;30184;42.018;23.670;2022-12-05T11:53:56;92151.94;;;9.55;74.20
44481;BME280;30184;42.018;23.670;2022-12-05T11:56:35;92168.34;;;9.45;74.81
44481;BME280;30184;42.018;23.670;2022-12-05T11:59:32;92141.53;;;9.54;75.54
44481;BME280;30184;42.018;23.670;2022-12-05T12:02:09;92136.16;;;9.50;77.29
44481;BME280;30184;42.018;23.670;2022-12-05T12:04:51;92134.97;;;9.51;77.72
44481;BME280;30184;42.018;23.670;2022-12-05T12:07:38;92132.16;;;9.58;77.92
44481;BME280;30184;42.018;23.670;2022-12-05T12:10:19;92134.75;;;9.65;77.89
44481;BME280;30184;42.018;23.670;2022-12-05T12:12:56;92138.16;;;9.73;76.80
44481;BME280;30184;42.018;23.670;2022-12-05T12:15:42;92140.38;;;9.78;76.89
44481;BME280;30184;42.018;23.670;2022-12-05T12:18:37;92131.00;;;9.83;75.53
44481;BME280;30184;42.018;23.670;2022-12-05T12:21:16;92138.19;;;9.69;74.60
44481;BME280;30184;42.018;23.670;2022-12-05T12:23:59;92155.06;;;9.81;74.16
44481;BME280;30184;42.018;23.670;2022-12-05T12:26:43;92120.66;;;9.78;74.12
44481;BME280;30184;42.018;23.670;2022-12-05T12:29:25;92123.75;;;9.76;74.59
44481;BME280;30184;42.018;23.670;2022-12-05T12:32:11;92110.97;;;9.77;75.15
44481;BME280;30184;42.018;23.670;2022-12-05T12:34:56;92137.31;;;9.76;74.89
44481;BME280;30184;42.018;23.670;2022-12-05T12:37:38;92102.41;;;9.82;74.69
44481;BME280;30184;42.018;23.670;2022-12-05T12:40:16;92103.63;;;9.77;74.14
44481;BME280;30184;42.018;23.670;2022-12-05T12:42:55;92100.47;;;9.82;73.77
44481;BME280;30184;42.018;23.670;2022-12-05T12:45:48;92095.84;;;9.79;74.00
44481;BME280;30184;42.018;23.670;2022-12-05T12:48:31;92097.78;;;9.79;73.86
44481;BME280;30184;42.018;23.670;2022-12-05T12:51:02;92102.84;;;9.77;74.86
44481;BME280;30184;42.018;23.670;2022-12-05T12:53:53;92102.44;;;9.78;74.80
44481;BME280;30184;42.018;23.670;2022-12-05T12:56:37;92093.94;;;9.76;75.06
44481;BME280;30184;42.018;23.670;2022-12-05T12:59:32;92100.16;;;9.77;75.19
44481;BME280;30184;42.018;23.670;2022-12-05T13:02:13;92097.03;;;9.78;75.49
44481;BME280;30184;42.018;23.670;2022-12-05T13:04:49;92105.53;;;9.80;75.25
44481;BME280;30184;42.018;23.670;2022-12-05T13:07:24;92080.94;;;9.67;74.36
44481;BME280;30184;42.018;23.670;2022-12-05T13:09:57;92094.31;;;9.78;74.03
44481;BME280;30184;42.018;23.670;2022-12-05T13:12:33;92090.84;;;9.78;74.59
44481;BME280;30184;42.018;23.670;2022-12-05T13:15:12;92099.38;;;9.76;74.18
44481;BME280;30184;42.018;23.670;2022-12-05T13:17:44;92092.81;;;9.73;74.80
44481;BME280;30184;42.018;23.670;2022-12-05T13:20:18;92087.88;;;9.68;75.36
44481;BME280;30184;42.018;23.670;2022-12-05T13:22:49;92089.47;;;9.66;75.66
44481;BME280;30184;42.018;23.670;2022-12-05T13:25:23;92085.34;;;9.58;75.76
44481;BME280;30184;42.018;23.670;2022-12-05T13:27:57;92090.34;;;9.59;76.96
44481;BME280;30184;42.018;23.670;2022-12-05T13:30:29;92091.16;;;9.56;77.56
44481;BME280;30184;42.018;23.670;2022-12-05T13:33:05;92093.94;;;9.53;78.46
44481;BME280;30184;42.018;23.670;2022-12-05T13:35:36;92088.19;;;9.47;78.77